sensor_id;sensor_type;location;lat;lon;timestamp;P1;durP1;ratioP1;P2;durP2;ratioP2
65558;SDS011;52203;51.998;5.140;2022-09-01T00:00:44;1.85;;;1.10;;
65558;SDS011;52203;51.998;5.140;2022-09-01T00:03:13;3.95;;;1.40;;
65558;SDS011;52203;51.998;5.140;2022-09-01T00:05:40;2.75;;;1.30;;
65558;SDS011;52203;51.998;5.140;2022-09-01T00:08:06;2.42;;;1.35;;
65558;SDS011;52203;51.998;5.140;2022-09-01T00:10:31;2.47;;;1.30;;
65558;SDS011;52203;51.998;5.140;2022-09-01T00:12:57;3.53;;;1.42;;
65558;SDS011;52203;51.998;5.140;2022-09-01T00:15:23;2.05;;;1.33;;
65558;SDS011;52203;51.998;5.140;2022-09-01T00:17:49;2.03;;;1.15;;
65558;SDS011;52203;51.998;5.140;2022-09-01T00:20:14;3.42;;;1.52;;
65558;SDS011;52203;51.998;5.140;2022-09-01T00:22:40;3.17;;;1.10;;
65558;SDS011;52203;51.998;5.140;2022-09-01T00:25:05;3.58;;;1.30;;
65558;SDS011;52203;51.998;5.140;2022-09-01T00:27:32;2.28;;;1.17;;
65558;SDS011;52203;51.998;5.140;2022-09-01T00:29:58;3.80;;;1.35;;
65558;SDS011;52203;51.998;5.140;2022-09-01T00:32:24;2.60;;;1.30;;
65558;SDS011;52203;51.998;5.140;2022-09-01T00:34:50;3.15;;;1.30;;
65558;SDS011;52203;51.998;5.140;2022-09-01T00:37:15;2.65;;;1.30;;
65558;SDS011;52203;51.998;5.140;2022-09-01T00:39:41;2.55;;;1.33;;
65558;SDS011;52203;51.998;5.140;2022-09-01T00:42:06;4.65;;;1.63;;
65558;SDS011;52203;51.998;5.140;2022-09-01T00:44:32;2.88;;;1.23;;
65558;SDS011;52203;51.998;5.140;2022-09-01T00:46:58;2.58;;;1.30;;
65558;SDS011;52203;51.998;5.140;2022-09-01T00:49:28;3.40;;;1.30;;
65558;SDS011;52203;51.998;5.140;2022-09-01T00:52:04;2.83;;;1.40;;
65558;SDS011;52203;51.998;5.140;2022-09-01T00:54:35;4.35;;;1.30;;
65558;SDS011;52203;51.998;5.140;2022-09-01T00:57:04;3.33;;;1.20;;
65558;SDS011;52203;51.998;5.140;2022-09-01T00:59:30;1.73;;;1.10;;
65558;SDS011;52203;51.998;5.140;2022-09-01T01:01:56;3.63;;;1.60;;
65558;SDS011;52203;51.998;5.140;2022-09-01T01:04:22;5.15;;;1.77;;
65558;SDS011;52203;51.998;5.140;2022-09-01T01:06:49;2.53;;;1.30;;
65558;SDS011;52203;51.998;5.140;2022-09-01T01:09:23;1.35;;;0.98;;
65558;SDS011;52203;51.998;5.140;2022-09-01T01:11:50;2.42;;;1.40;;
65558;SDS011;52203;51.998;5.140;2022-09-01T01:14:17;2.88;;;1.30;;
65558;SDS011;52203;51.998;5.140;2022-09-01T01:16:44;3.08;;;1.30;;
65558;SDS011;52203;51.998;5.140;2022-09-01T01:22:32;3.35;;;1.42;;
65558;SDS011;52203;51.998;5.140;2022-09-01T01:25:26;2.85;;;1.60;;
65558;SDS011;52203;51.998;5.140;2022-09-01T01:30:52;2.67;;;1.17;;
65558;SDS011;52203;51.998;5.140;2022-09-01T01:33:24;7.07;;;2.58;;
65558;SDS011;52203;51.998;5.140;2022-09-01T01:35:52;3.00;;;1.90;;
65558;SDS011;52203;51.998;5.140;2022-09-01T01:38:21;3.60;;;1.45;;
65558;SDS011;52203;51.998;5.140;2022-09-01T01:40:48;3.17;;;1.40;;
65558;SDS011;52203;51.998;5.140;2022-09-01T01:43:16;1.83;;;1.20;;
65558;SDS011;52203;51.998;5.140;2022-09-01T01:45:49;3.97;;;1.90;;
65558;SDS011;52203;51.998;5.140;2022-09-01T01:48:20;2.88;;;1.58;;
65558;SDS011;52203;51.998;5.140;2022-09-01T01:50:48;2.90;;;1.48;;
65558;SDS011;52203;51.998;5.140;2022-09-01T01:53:14;2.72;;;1.30;;
65558;SDS011;52203;51.998;5.140;2022-09-01T01:55:44;3.20;;;1.50;;
65558;SDS011;52203;51.998;5.140;2022-09-01T01:58:13;5.03;;;1.67;;
65558;SDS011;52203;51.998;5.140;2022-09-01T02:00:44;3.25;;;1.42;;
65558;SDS011;52203;51.998;5.140;2022-09-01T02:03:12;2.88;;;1.50;;
65558;SDS011;52203;51.998;5.140;2022-09-01T02:05:43;2.53;;;1.70;;
65558;SDS011;52203;51.998;5.140;2022-09-01T02:08:10;3.50;;;1.73;;
65558;SDS011;52203;51.998;5.140;2022-09-01T02:10:40;2.55;;;1.40;;
65558;SDS011;52203;51.998;5.140;2022-09-01T02:13:08;2.63;;;1.50;;
65558;SDS011;52203;51.998;5.140;2022-09-01T02:15:40;3.17;;;1.65;;
65558;SDS011;52203;51.998;5.140;2022-09-01T02:18:20;2.85;;;1.95;;
65558;SDS011;52203;51.998;5.140;2022-09-01T02:20:52;3.47;;;1.63;;
65558;SDS011;52203;51.998;5.140;2022-09-01T02:23:19;2.17;;;1.45;;
65558;SDS011;52203;51.998;5.140;2022-09-01T02:25:49;2.50;;;1.20;;
65558;SDS011;52203;51.998;5.140;2022-09-01T02:28:24;2.35;;;1.50;;
65558;SDS011;52203;51.998;5.140;2022-09-01T02:30:52;2.90;;;1.70;;
65558;SDS011;52203;51.998;5.140;2022-09-01T02:33:21;3.30;;;1.27;;
65558;SDS011;52203;51.998;5.140;2022-09-01T02:35:52;4.25;;;2.70;;
65558;SDS011;52203;51.998;5.140;2022-09-01T02:38:22;6.00;;;2.38;;
65558;SDS011;52203;51.998;5.140;2022-09-01T02:40:50;3.08;;;1.77;;
65558;SDS011;52203;51.998;5.140;2022-09-01T02:43:18;2.33;;;1.42;;
65558;SDS011;52203;51.998;5.140;2022-09-01T02:45:50;4.15;;;1.83;;
65558;SDS011;52203;51.998;5.140;2022-09-01T02:48:23;2.88;;;1.63;;
65558;SDS011;52203;51.998;5.140;2022-09-01T02:50:53;4.35;;;1.95;;
65558;SDS011;52203;51.998;5.140;2022-09-01T02:53:19;3.97;;;1.85;;
65558;SDS011;52203;51.998;5.140;2022-09-01T02:55:45;3.10;;;1.50;;
65558;SDS011;52203;51.998;5.140;2022-09-01T02:58:10;3.35;;;1.88;;
65558;SDS011;52203;51.998;5.140;2022-09-01T03:00:40;3.30;;;1.60;;
65558;SDS011;52203;51.998;5.140;2022-09-01T03:03:07;3.08;;;1.50;;
65558;SDS011;52203;51.998;5.140;2022-09-01T03:05:33;3.25;;;1.90;;
65558;SDS011;52203;51.998;5.140;2022-09-01T03:08:04;3.75;;;1.65;;
65558;SDS011;52203;51.998;5.140;2022-09-01T03:10:33;3.08;;;1.65;;
65558;SDS011;52203;51.998;5.140;2022-09-01T03:13:00;2.83;;;1.58;;
65558;SDS011;52203;51.998;5.140;2022-09-01T03:15:28;3.47;;;1.55;;
65558;SDS011;52203;51.998;5.140;2022-09-01T03:17:55;5.50;;;2.10;;
65558;SDS011;52203;51.998;5.140;2022-09-01T03:20:23;4.50;;;1.88;;
65558;SDS011;52203;51.998;5.140;2022-09-01T03:22:49;3.78;;;1.95;;
65558;SDS011;52203;51.998;5.140;2022-09-01T03:25:16;4.22;;;2.10;;
65558;SDS011;52203;51.998;5.140;2022-09-01T03:27:42;3.95;;;1.80;;
65558;SDS011;52203;51.998;5.140;2022-09-01T03:30:09;4.03;;;1.90;;
65558;SDS011;52203;51.998;5.140;2022-09-01T03:32:35;3.83;;;1.85;;
65558;SDS011;52203;51.998;5.140;2022-09-01T03:35:00;3.40;;;2.17;;
65558;SDS011;52203;51.998;5.140;2022-09-01T03:37:27;3.92;;;1.90;;
65558;SDS011;52203;51.998;5.140;2022-09-01T03:39:52;3.92;;;1.85;;
65558;SDS011;52203;51.998;5.140;2022-09-01T03:42:19;4.95;;;2.30;;
65558;SDS011;52203;51.998;5.140;2022-09-01T03:44:46;3.17;;;1.80;;
65558;SDS011;52203;51.998;5.140;2022-09-01T03:47:13;4.85;;;2.20;;
65558;SDS011;52203;51.998;5.140;2022-09-01T03:49:39;4.07;;;1.95;;
65558;SDS011;52203;51.998;5.140;2022-09-01T03:52:10;3.10;;;1.83;;
65558;SDS011;52203;51.998;5.140;2022-09-01T03:54:36;2.95;;;1.80;;
65558;SDS011;52203;51.998;5.140;2022-09-01T03:57:02;3.22;;;1.70;;
65558;SDS011;52203;51.998;5.140;2022-09-01T03:59:30;3.05;;;2.10;;
65558;SDS011;52203;51.998;5.140;2022-09-01T04:01:57;2.80;;;1.80;;
65558;SDS011;52203;51.998;5.140;2022-09-01T04:04:24;3.63;;;2.00;;
65558;SDS011;52203;51.998;5.140;2022-09-01T04:06:50;2.95;;;1.70;;
65558;SDS011;52203;51.998;5.140;2022-09-01T04:09:16;2.97;;;1.92;;
65558;SDS011;52203;51.998;5.140;2022-09-01T04:11:41;4.60;;;2.10;;
65558;SDS011;52203;51.998;5.140;2022-09-01T04:14:10;4.30;;;2.15;;
65558;SDS011;52203;51.998;5.140;2022-09-01T04:16:36;3.58;;;1.70;;
65558;SDS011;52203;51.998;5.140;2022-09-01T04:19:21;3.92;;;1.85;;
65558;SDS011;52203;51.998;5.140;2022-09-01T04:21:58;5.50;;;2.60;;
65558;SDS011;52203;51.998;5.140;2022-09-01T04:24:25;4.80;;;2.10;;
65558;SDS011;52203;51.998;5.140;2022-09-01T04:26:53;4.25;;;2.10;;
65558;SDS011;52203;51.998;5.140;2022-09-01T04:29:24;3.53;;;2.00;;
65558;SDS011;52203;51.998;5.140;2022-09-01T04:31:53;3.47;;;2.10;;
65558;SDS011;52203;51.998;5.140;2022-09-01T04:34:21;5.82;;;2.75;;
65558;SDS011;52203;51.998;5.140;2022-09-01T04:36:48;4.13;;;2.17;;
65558;SDS011;52203;51.998;5.140;2022-09-01T04:39:18;3.83;;;2.15;;
65558;SDS011;52203;51.998;5.140;2022-09-01T04:41:45;4.78;;;2.00;;
65558;SDS011;52203;51.998;5.140;2022-09-01T04:44:11;5.15;;;3.00;;
65558;SDS011;52203;51.998;5.140;2022-09-01T04:46:38;4.40;;;2.25;;
65558;SDS011;52203;51.998;5.140;2022-09-01T04:49:06;3.85;;;2.10;;
65558;SDS011;52203;51.998;5.140;2022-09-01T04:51:39;3.67;;;1.92;;
65558;SDS011;52203;51.998;5.140;2022-09-01T04:54:06;2.97;;;1.85;;
65558;SDS011;52203;51.998;5.140;2022-09-01T04:56:36;3.53;;;2.00;;
65558;SDS011;52203;51.998;5.140;2022-09-01T04:59:03;7.05;;;2.40;;
65558;SDS011;52203;51.998;5.140;2022-09-01T05:01:31;4.80;;;2.15;;
65558;SDS011;52203;51.998;5.140;2022-09-01T05:04:07;5.80;;;2.45;;
65558;SDS011;52203;51.998;5.140;2022-09-01T05:06:35;5.45;;;1.90;;
65558;SDS011;52203;51.998;5.140;2022-09-01T05:09:03;3.92;;;1.95;;
65558;SDS011;52203;51.998;5.140;2022-09-01T05:11:29;3.55;;;2.35;;
65558;SDS011;52203;51.998;5.140;2022-09-01T05:13:56;5.18;;;2.15;;
65558;SDS011;52203;51.998;5.140;2022-09-01T05:16:23;6.28;;;2.08;;
65558;SDS011;52203;51.998;5.140;2022-09-01T05:18:49;5.95;;;2.30;;
65558;SDS011;52203;51.998;5.140;2022-09-01T05:21:21;4.03;;;2.30;;
65558;SDS011;52203;51.998;5.140;2022-09-01T05:23:52;6.82;;;2.30;;
65558;SDS011;52203;51.998;5.140;2022-09-01T05:26:25;3.35;;;2.05;;
65558;SDS011;52203;51.998;5.140;2022-09-01T05:28:55;4.75;;;2.20;;
65558;SDS011;52203;51.998;5.140;2022-09-01T05:31:23;3.10;;;1.80;;
65558;SDS011;52203;51.998;5.140;2022-09-01T05:33:52;3.60;;;2.10;;
65558;SDS011;52203;51.998;5.140;2022-09-01T05:36:20;3.17;;;2.00;;
65558;SDS011;52203;51.998;5.140;2022-09-01T05:38:48;3.33;;;2.08;;
65558;SDS011;52203;51.998;5.140;2022-09-01T05:41:15;4.18;;;2.83;;
65558;SDS011;52203;51.998;5.140;2022-09-01T05:43:45;5.00;;;2.33;;
65558;SDS011;52203;51.998;5.140;2022-09-01T05:46:14;3.22;;;2.13;;
65558;SDS011;52203;51.998;5.140;2022-09-01T05:48:42;4.88;;;2.78;;
65558;SDS011;52203;51.998;5.140;2022-09-01T05:51:09;3.30;;;2.40;;
65558;SDS011;52203;51.998;5.140;2022-09-01T05:53:40;4.75;;;2.63;;
65558;SDS011;52203;51.998;5.140;2022-09-01T05:56:06;3.58;;;1.95;;
65558;SDS011;52203;51.998;5.140;2022-09-01T05:58:33;3.35;;;2.40;;
65558;SDS011;52203;51.998;5.140;2022-09-01T06:00:59;3.95;;;2.15;;
65558;SDS011;52203;51.998;5.140;2022-09-01T06:03:25;4.10;;;2.63;;
65558;SDS011;52203;51.998;5.140;2022-09-01T06:05:52;6.22;;;2.78;;
65558;SDS011;52203;51.998;5.140;2022-09-01T06:08:20;3.42;;;2.15;;
65558;SDS011;52203;51.998;5.140;2022-09-01T06:10:47;4.15;;;2.30;;
65558;SDS011;52203;51.998;5.140;2022-09-01T06:13:14;4.40;;;2.42;;
65558;SDS011;52203;51.998;5.140;2022-09-01T06:15:43;4.57;;;2.20;;
65558;SDS011;52203;51.998;5.140;2022-09-01T06:18:10;5.38;;;2.10;;
65558;SDS011;52203;51.998;5.140;2022-09-01T06:20:43;4.78;;;2.72;;
65558;SDS011;52203;51.998;5.140;2022-09-01T06:23:11;4.70;;;2.53;;
65558;SDS011;52203;51.998;5.140;2022-09-01T06:25:39;5.68;;;2.28;;
65558;SDS011;52203;51.998;5.140;2022-09-01T06:28:10;4.45;;;2.42;;
65558;SDS011;52203;51.998;5.140;2022-09-01T06:30:36;4.53;;;2.00;;
65558;SDS011;52203;51.998;5.140;2022-09-01T06:33:03;4.63;;;2.55;;
65558;SDS011;52203;51.998;5.140;2022-09-01T06:35:33;3.95;;;2.22;;
65558;SDS011;52203;51.998;5.140;2022-09-01T06:38:00;4.47;;;2.20;;
65558;SDS011;52203;51.998;5.140;2022-09-01T06:40:27;3.55;;;2.15;;
65558;SDS011;52203;51.998;5.140;2022-09-01T06:42:53;4.38;;;2.30;;
65558;SDS011;52203;51.998;5.140;2022-09-01T06:45:20;3.13;;;2.00;;
65558;SDS011;52203;51.998;5.140;2022-09-01T06:47:47;2.88;;;2.22;;
65558;SDS011;52203;51.998;5.140;2022-09-01T06:50:15;3.53;;;2.10;;
65558;SDS011;52203;51.998;5.140;2022-09-01T06:52:45;3.63;;;2.15;;
65558;SDS011;52203;51.998;5.140;2022-09-01T06:55:14;3.85;;;2.50;;
65558;SDS011;52203;51.998;5.140;2022-09-01T06:57:41;3.65;;;2.00;;
65558;SDS011;52203;51.998;5.140;2022-09-01T07:00:10;3.13;;;2.03;;
65558;SDS011;52203;51.998;5.140;2022-09-01T07:02:51;3.72;;;2.00;;
65558;SDS011;52203;51.998;5.140;2022-09-01T07:05:21;3.03;;;2.15;;
65558;SDS011;52203;51.998;5.140;2022-09-01T07:07:47;5.03;;;2.40;;
65558;SDS011;52203;51.998;5.140;2022-09-01T07:10:20;3.67;;;2.03;;
65558;SDS011;52203;51.998;5.140;2022-09-01T07:12:54;4.25;;;2.20;;
65558;SDS011;52203;51.998;5.140;2022-09-01T07:15:21;3.22;;;2.40;;
65558;SDS011;52203;51.998;5.140;2022-09-01T07:17:48;3.78;;;1.90;;
65558;SDS011;52203;51.998;5.140;2022-09-01T07:20:16;4.65;;;2.20;;
65558;SDS011;52203;51.998;5.140;2022-09-01T07:22:45;4.22;;;1.98;;
65558;SDS011;52203;51.998;5.140;2022-09-01T07:25:14;3.65;;;2.20;;
65558;SDS011;52203;51.998;5.140;2022-09-01T07:27:41;5.53;;;2.10;;
65558;SDS011;52203;51.998;5.140;2022-09-01T07:30:17;3.90;;;1.92;;
65558;SDS011;52203;51.998;5.140;2022-09-01T07:32:46;3.25;;;2.00;;
65558;SDS011;52203;51.998;5.140;2022-09-01T07:35:13;4.82;;;2.20;;
65558;SDS011;52203;51.998;5.140;2022-09-01T07:37:40;5.10;;;1.90;;
65558;SDS011;52203;51.998;5.140;2022-09-01T07:40:06;4.65;;;1.85;;
65558;SDS011;52203;51.998;5.140;2022-09-01T07:42:34;6.15;;;2.33;;
65558;SDS011;52203;51.998;5.140;2022-09-01T07:45:03;3.08;;;1.60;;
65558;SDS011;52203;51.998;5.140;2022-09-01T07:47:36;4.43;;;1.80;;
65558;SDS011;52203;51.998;5.140;2022-09-01T07:50:06;4.45;;;1.70;;
65558;SDS011;52203;51.998;5.140;2022-09-01T07:52:34;3.40;;;1.90;;
65558;SDS011;52203;51.998;5.140;2022-09-01T07:55:01;4.75;;;1.80;;
65558;SDS011;52203;51.998;5.140;2022-09-01T07:57:27;3.83;;;1.40;;
65558;SDS011;52203;51.998;5.140;2022-09-01T07:59:53;2.13;;;1.33;;
65558;SDS011;52203;51.998;5.140;2022-09-01T08:02:20;2.50;;;1.50;;
65558;SDS011;52203;51.998;5.140;2022-09-01T08:04:46;3.03;;;1.67;;
65558;SDS011;52203;51.998;5.140;2022-09-01T08:07:12;4.75;;;1.80;;
65558;SDS011;52203;51.998;5.140;2022-09-01T08:09:38;3.13;;;1.80;;
65558;SDS011;52203;51.998;5.140;2022-09-01T08:12:04;2.05;;;1.38;;
65558;SDS011;52203;51.998;5.140;2022-09-01T08:14:31;2.75;;;1.33;;
65558;SDS011;52203;51.998;5.140;2022-09-01T08:16:57;2.78;;;1.50;;
65558;SDS011;52203;51.998;5.140;2022-09-01T08:19:22;2.88;;;1.40;;
65558;SDS011;52203;51.998;5.140;2022-09-01T08:21:48;2.13;;;1.35;;
65558;SDS011;52203;51.998;5.140;2022-09-01T08:24:13;3.50;;;1.27;;
65558;SDS011;52203;51.998;5.140;2022-09-01T08:26:39;2.65;;;1.52;;
65558;SDS011;52203;51.998;5.140;2022-09-01T08:29:05;3.45;;;1.48;;
65558;SDS011;52203;51.998;5.140;2022-09-01T08:31:30;2.45;;;1.60;;
65558;SDS011;52203;51.998;5.140;2022-09-01T08:33:56;3.40;;;1.40;;
65558;SDS011;52203;51.998;5.140;2022-09-01T08:36:23;4.57;;;1.45;;
65558;SDS011;52203;51.998;5.140;2022-09-01T08:38:48;3.47;;;2.10;;
65558;SDS011;52203;51.998;5.140;2022-09-01T08:46:40;1.98;;;1.20;;
65558;SDS011;52203;51.998;5.140;2022-09-01T08:49:12;2.00;;;1.23;;
65558;SDS011;52203;51.998;5.140;2022-09-01T08:51:44;3.88;;;1.30;;
65558;SDS011;52203;51.998;5.140;2022-09-01T08:57:07;4.70;;;1.58;;
65558;SDS011;52203;51.998;5.140;2022-09-01T08:59:38;3.13;;;1.38;;
65558;SDS011;52203;51.998;5.140;2022-09-01T09:10:41;3.27;;;1.20;;
65558;SDS011;52203;51.998;5.140;2022-09-01T09:15:53;2.65;;;1.15;;
65558;SDS011;52203;51.998;5.140;2022-09-01T09:18:32;3.47;;;1.20;;
65558;SDS011;52203;51.998;5.140;2022-09-01T09:21:13;2.92;;;1.30;;
65558;SDS011;52203;51.998;5.140;2022-09-01T09:23:44;3.38;;;1.17;;
65558;SDS011;52203;51.998;5.140;2022-09-01T09:26:12;1.73;;;1.10;;
65558;SDS011;52203;51.998;5.140;2022-09-01T09:28:37;1.60;;;1.15;;
65558;SDS011;52203;51.998;5.140;2022-09-01T09:34:00;3.55;;;1.17;;
65558;SDS011;52203;51.998;5.140;2022-09-01T09:36:31;2.88;;;1.10;;
65558;SDS011;52203;51.998;5.140;2022-09-01T09:39:03;5.35;;;1.35;;
65558;SDS011;52203;51.998;5.140;2022-09-01T09:41:34;1.73;;;1.10;;
65558;SDS011;52203;51.998;5.140;2022-09-01T09:46:45;3.95;;;1.10;;
65558;SDS011;52203;51.998;5.140;2022-09-01T09:49:26;3.30;;;1.15;;
65558;SDS011;52203;51.998;5.140;2022-09-01T09:51:57;4.85;;;1.20;;
65558;SDS011;52203;51.998;5.140;2022-09-01T09:54:39;1.88;;;1.00;;
65558;SDS011;52203;51.998;5.140;2022-09-01T09:57:23;3.55;;;1.13;;
65558;SDS011;52203;51.998;5.140;2022-09-01T10:02:24;1.88;;;0.98;;
65558;SDS011;52203;51.998;5.140;2022-09-01T10:04:57;3.05;;;1.10;;
65558;SDS011;52203;51.998;5.140;2022-09-01T10:07:35;2.35;;;1.30;;
65558;SDS011;52203;51.998;5.140;2022-09-01T10:10:24;2.75;;;1.17;;
65558;SDS011;52203;51.998;5.140;2022-09-01T10:12:55;2.08;;;1.15;;
65558;SDS011;52203;51.998;5.140;2022-09-01T10:15:23;2.80;;;1.08;;
65558;SDS011;52203;51.998;5.140;2022-09-01T10:17:53;2.40;;;1.00;;
65558;SDS011;52203;51.998;5.140;2022-09-01T10:20:23;2.75;;;1.27;;
65558;SDS011;52203;51.998;5.140;2022-09-01T10:22:50;2.17;;;1.17;;
65558;SDS011;52203;51.998;5.140;2022-09-01T10:25:18;1.48;;;0.88;;
65558;SDS011;52203;51.998;5.140;2022-09-01T10:27:48;3.17;;;1.30;;
65558;SDS011;52203;51.998;5.140;2022-09-01T10:30:20;5.13;;;1.15;;
65558;SDS011;52203;51.998;5.140;2022-09-01T10:32:53;2.65;;;1.00;;
65558;SDS011;52203;51.998;5.140;2022-09-01T10:35:28;2.83;;;1.00;;
65558;SDS011;52203;51.998;5.140;2022-09-01T10:37:57;2.03;;;1.10;;
65558;SDS011;52203;51.998;5.140;2022-09-01T10:40:33;3.70;;;1.27;;
65558;SDS011;52203;51.998;5.140;2022-09-01T10:43:45;1.60;;;0.98;;
65558;SDS011;52203;51.998;5.140;2022-09-01T10:45:45;3.20;;;1.00;;
65558;SDS011;52203;51.998;5.140;2022-09-01T10:48:30;1.63;;;0.93;;
65558;SDS011;52203;51.998;5.140;2022-09-01T10:53:44;1.60;;;0.90;;
65558;SDS011;52203;51.998;5.140;2022-09-01T10:58:48;1.50;;;0.80;;
65558;SDS011;52203;51.998;5.140;2022-09-01T11:04:04;3.05;;;1.10;;
65558;SDS011;52203;51.998;5.140;2022-09-01T11:09:05;3.03;;;1.00;;
65558;SDS011;52203;51.998;5.140;2022-09-01T11:11:43;3.15;;;1.00;;
65558;SDS011;52203;51.998;5.140;2022-09-01T11:14:22;2.00;;;1.00;;
65558;SDS011;52203;51.998;5.140;2022-09-01T11:22:16;3.03;;;1.00;;
65558;SDS011;52203;51.998;5.140;2022-09-01T11:30:55;2.30;;;1.00;;
65558;SDS011;52203;51.998;5.140;2022-09-01T11:35:40;1.85;;;0.98;;
65558;SDS011;52203;51.998;5.140;2022-09-01T11:38:08;2.72;;;0.90;;
65558;SDS011;52203;51.998;5.140;2022-09-01T11:40:38;1.63;;;1.00;;
65558;SDS011;52203;51.998;5.140;2022-09-01T11:43:05;1.45;;;1.00;;
65558;SDS011;52203;51.998;5.140;2022-09-01T11:45:35;2.20;;;1.08;;
65558;SDS011;52203;51.998;5.140;2022-09-01T11:48:09;2.47;;;0.80;;
65558;SDS011;52203;51.998;5.140;2022-09-01T11:50:37;2.88;;;0.98;;
65558;SDS011;52203;51.998;5.140;2022-09-01T11:53:09;2.63;;;1.10;;
65558;SDS011;52203;51.998;5.140;2022-09-01T11:55:50;1.40;;;0.90;;
65558;SDS011;52203;51.998;5.140;2022-09-01T12:00:51;3.85;;;1.15;;
65558;SDS011;52203;51.998;5.140;2022-09-01T12:03:19;2.53;;;1.00;;
65558;SDS011;52203;51.998;5.140;2022-09-01T12:05:47;3.75;;;1.00;;
65558;SDS011;52203;51.998;5.140;2022-09-01T12:08:18;1.83;;;0.80;;
65558;SDS011;52203;51.998;5.140;2022-09-01T12:10:45;3.80;;;0.90;;
65558;SDS011;52203;51.998;5.140;2022-09-01T12:13:19;3.22;;;1.00;;
65558;SDS011;52203;51.998;5.140;2022-09-01T12:15:59;2.85;;;1.23;;
65558;SDS011;52203;51.998;5.140;2022-09-01T12:18:28;2.22;;;0.93;;
65558;SDS011;52203;51.998;5.140;2022-09-01T12:20:56;2.65;;;0.80;;
65558;SDS011;52203;51.998;5.140;2022-09-01T12:25:55;2.00;;;0.90;;
65558;SDS011;52203;51.998;5.140;2022-09-01T12:28:24;1.75;;;1.00;;
65558;SDS011;52203;51.998;5.140;2022-09-01T12:30:51;1.23;;;0.77;;
65558;SDS011;52203;51.998;5.140;2022-09-01T12:33:19;2.38;;;1.05;;
65558;SDS011;52203;51.998;5.140;2022-09-01T12:35:45;2.03;;;0.85;;
65558;SDS011;52203;51.998;5.140;2022-09-01T12:40:44;2.97;;;1.02;;
65558;SDS011;52203;51.998;5.140;2022-09-01T12:43:25;1.27;;;0.70;;
65558;SDS011;52203;51.998;5.140;2022-09-01T12:45:52;4.43;;;0.90;;
65558;SDS011;52203;51.998;5.140;2022-09-01T12:48:25;2.83;;;0.80;;
65558;SDS011;52203;51.998;5.140;2022-09-01T12:51:00;4.38;;;0.95;;
65558;SDS011;52203;51.998;5.140;2022-09-01T12:53:39;2.38;;;0.80;;
65558;SDS011;52203;51.998;5.140;2022-09-01T12:56:15;3.03;;;0.90;;
65558;SDS011;52203;51.998;5.140;2022-09-01T12:58:45;4.32;;;0.85;;
65558;SDS011;52203;51.998;5.140;2022-09-01T13:01:26;2.47;;;1.00;;
65558;SDS011;52203;51.998;5.140;2022-09-01T13:06:45;1.95;;;0.80;;
65558;SDS011;52203;51.998;5.140;2022-09-01T13:09:10;2.55;;;0.90;;
65558;SDS011;52203;51.998;5.140;2022-09-01T13:11:36;3.00;;;0.90;;
65558;SDS011;52203;51.998;5.140;2022-09-01T13:14:02;2.17;;;0.70;;
65558;SDS011;52203;51.998;5.140;2022-09-01T13:16:28;1.75;;;0.75;;
65558;SDS011;52203;51.998;5.140;2022-09-01T13:18:53;2.63;;;0.90;;
65558;SDS011;52203;51.998;5.140;2022-09-01T13:21:19;2.83;;;0.80;;
65558;SDS011;52203;51.998;5.140;2022-09-01T13:23:45;2.08;;;1.10;;
65558;SDS011;52203;51.998;5.140;2022-09-01T13:26:11;1.83;;;0.80;;
65558;SDS011;52203;51.998;5.140;2022-09-01T13:28:37;2.35;;;0.93;;
65558;SDS011;52203;51.998;5.140;2022-09-01T13:31:03;2.20;;;0.88;;
65558;SDS011;52203;51.998;5.140;2022-09-01T13:33:29;2.20;;;0.98;;
65558;SDS011;52203;51.998;5.140;2022-09-01T13:35:55;1.70;;;0.85;;
65558;SDS011;52203;51.998;5.140;2022-09-01T13:38:21;4.32;;;0.80;;
65558;SDS011;52203;51.998;5.140;2022-09-01T13:40:47;4.22;;;1.23;;
65558;SDS011;52203;51.998;5.140;2022-09-01T13:43:14;2.20;;;0.93;;
65558;SDS011;52203;51.998;5.140;2022-09-01T13:45:42;1.67;;;0.80;;
65558;SDS011;52203;51.998;5.140;2022-09-01T13:48:07;4.45;;;0.93;;
65558;SDS011;52203;51.998;5.140;2022-09-01T13:50:34;2.45;;;0.88;;
65558;SDS011;52203;51.998;5.140;2022-09-01T13:53:02;1.90;;;0.90;;
65558;SDS011;52203;51.998;5.140;2022-09-01T13:55:29;3.15;;;0.90;;
65558;SDS011;52203;51.998;5.140;2022-09-01T13:57:56;2.58;;;1.10;;
65558;SDS011;52203;51.998;5.140;2022-09-01T14:00:27;2.55;;;0.80;;
65558;SDS011;52203;51.998;5.140;2022-09-01T14:03:05;2.30;;;0.95;;
65558;SDS011;52203;51.998;5.140;2022-09-01T14:05:34;1.88;;;0.98;;
65558;SDS011;52203;51.998;5.140;2022-09-01T14:08:02;2.65;;;1.02;;
65558;SDS011;52203;51.998;5.140;2022-09-01T14:10:29;2.83;;;1.00;;
65558;SDS011;52203;51.998;5.140;2022-09-01T14:12:56;3.15;;;1.00;;
65558;SDS011;52203;51.998;5.140;2022-09-01T14:15:23;3.85;;;1.10;;
65558;SDS011;52203;51.998;5.140;2022-09-01T14:17:50;4.00;;;0.85;;
65558;SDS011;52203;51.998;5.140;2022-09-01T14:20:18;2.47;;;0.93;;
65558;SDS011;52203;51.998;5.140;2022-09-01T14:22:46;2.70;;;0.98;;
65558;SDS011;52203;51.998;5.140;2022-09-01T14:25:12;2.38;;;0.90;;
65558;SDS011;52203;51.998;5.140;2022-09-01T14:27:39;1.60;;;0.70;;
65558;SDS011;52203;51.998;5.140;2022-09-01T14:30:07;3.28;;;1.25;;
65558;SDS011;52203;51.998;5.140;2022-09-01T14:32:34;1.83;;;0.90;;
65558;SDS011;52203;51.998;5.140;2022-09-01T14:34:59;1.92;;;0.80;;
65558;SDS011;52203;51.998;5.140;2022-09-01T14:37:26;2.28;;;0.80;;
65558;SDS011;52203;51.998;5.140;2022-09-01T14:39:52;3.38;;;1.05;;
65558;SDS011;52203;51.998;5.140;2022-09-01T14:42:20;3.38;;;1.00;;
65558;SDS011;52203;51.998;5.140;2022-09-01T14:44:46;2.03;;;1.13;;
65558;SDS011;52203;51.998;5.140;2022-09-01T14:47:12;3.00;;;1.02;;
65558;SDS011;52203;51.998;5.140;2022-09-01T14:49:39;5.07;;;1.30;;
65558;SDS011;52203;51.998;5.140;2022-09-01T14:52:06;3.28;;;1.08;;
65558;SDS011;52203;51.998;5.140;2022-09-01T14:54:38;3.83;;;1.00;;
65558;SDS011;52203;51.998;5.140;2022-09-01T14:57:06;1.27;;;0.80;;
65558;SDS011;52203;51.998;5.140;2022-09-01T14:59:32;2.47;;;0.98;;
65558;SDS011;52203;51.998;5.140;2022-09-01T15:01:57;1.80;;;0.75;;
65558;SDS011;52203;51.998;5.140;2022-09-01T15:04:23;2.28;;;1.33;;
65558;SDS011;52203;51.998;5.140;2022-09-01T15:06:50;2.63;;;1.10;;
65558;SDS011;52203;51.998;5.140;2022-09-01T15:09:15;2.42;;;0.98;;
65558;SDS011;52203;51.998;5.140;2022-09-01T15:11:41;1.63;;;0.80;;
65558;SDS011;52203;51.998;5.140;2022-09-01T15:14:07;2.67;;;0.80;;
65558;SDS011;52203;51.998;5.140;2022-09-01T15:16:36;2.20;;;0.90;;
65558;SDS011;52203;51.998;5.140;2022-09-01T15:19:06;2.80;;;1.00;;
65558;SDS011;52203;51.998;5.140;2022-09-01T15:21:34;2.13;;;1.08;;
65558;SDS011;52203;51.998;5.140;2022-09-01T15:24:00;2.22;;;0.98;;
65558;SDS011;52203;51.998;5.140;2022-09-01T15:26:26;3.30;;;1.00;;
65558;SDS011;52203;51.998;5.140;2022-09-01T15:28:52;1.75;;;0.95;;
65558;SDS011;52203;51.998;5.140;2022-09-01T15:31:18;2.25;;;1.08;;
65558;SDS011;52203;51.998;5.140;2022-09-01T15:33:45;2.55;;;0.90;;
65558;SDS011;52203;51.998;5.140;2022-09-01T15:36:18;3.50;;;1.30;;
65558;SDS011;52203;51.998;5.140;2022-09-01T18:16:46;7.70;;;1.38;;
65558;SDS011;52203;51.998;5.140;2022-09-01T18:19:26;2.65;;;1.48;;
65558;SDS011;52203;51.998;5.140;2022-09-01T18:21:59;3.53;;;1.60;;
65558;SDS011;52203;51.998;5.140;2022-09-01T18:24:34;4.18;;;1.50;;
65558;SDS011;52203;51.998;5.140;2022-09-01T18:27:16;5.88;;;1.50;;
65558;SDS011;52203;51.998;5.140;2022-09-01T18:29:41;2.95;;;1.45;;
65558;SDS011;52203;51.998;5.140;2022-09-01T18:32:10;4.07;;;1.38;;
65558;SDS011;52203;51.998;5.140;2022-09-01T18:40:36;2.80;;;1.58;;
65558;SDS011;52203;51.998;5.140;2022-09-01T18:43:17;4.32;;;1.60;;
65558;SDS011;52203;51.998;5.140;2022-09-01T18:45:51;5.50;;;1.75;;
65558;SDS011;52203;51.998;5.140;2022-09-01T18:51:29;4.25;;;1.83;;
65558;SDS011;52203;51.998;5.140;2022-09-01T18:54:11;2.30;;;1.50;;